createdAt,value
2017-06-01T00:00:02.796Z,1022.68
2017-06-01T00:05:02.884Z,1022.67
2017-06-01T00:10:03.197Z,1022.67
2017-06-01T00:15:02.666Z,1022.69
2017-06-01T00:20:03.064Z,1022.63
2017-06-01T00:25:03.410Z,1022.65
2017-06-01T00:30:02.761Z,1022.6
2017-06-01T00:35:03.099Z,1022.59
2017-06-01T00:40:03.454Z,1022.65
2017-06-01T00:45:02.847Z,1022.62
2017-06-01T00:50:03.273Z,1022.67
2017-06-01T00:55:02.784Z,1022.65
2017-06-01T01:00:03.100Z,1022.69
2017-06-01T01:05:03.417Z,1022.77
2017-06-01T01:10:02.815Z,1022.77
2017-06-01T01:15:03.231Z,1022.71
2017-06-01T01:20:02.656Z,1022.76
2017-06-01T01:25:03.061Z,1022.81
2017-06-01T01:30:03.404Z,1022.77
2017-06-01T01:35:02.731Z,1022.71
2017-06-01T01:40:03.267Z,1022.72
2017-06-01T01:45:02.611Z,1022.69
2017-06-01T01:50:02.906Z,1022.69
2017-06-01T01:55:03.340Z,1022.69
2017-06-01T02:00:02.611Z,1022.71
2017-06-01T02:05:02.870Z,1022.8
2017-06-01T02:10:03.403Z,1022.78
2017-06-01T02:15:02.801Z,1022.79
2017-06-01T02:20:03.160Z,1022.76
2017-06-01T02:25:02.644Z,1022.71
2017-06-01T02:30:02.991Z,1022.78
2017-06-01T02:35:03.443Z,1022.59
2017-06-01T02:40:02.804Z,1022.6
2017-06-01T02:45:03.131Z,1022.66
2017-06-01T02:50:02.540Z,1022.57
2017-06-01T02:55:02.889Z,1022.55
2017-06-01T03:00:03.186Z,1022.68
2017-06-01T03:05:02.536Z,1022.64
2017-06-01T03:10:02.972Z,1022.66
2017-06-01T03:15:03.372Z,1022.65
2017-06-01T03:20:02.631Z,1022.63
2017-06-01T03:25:03.035Z,1022.72
2017-06-01T03:30:03.305Z,1022.71
2017-06-01T03:40:03.124Z,1022.74
2017-06-01T03:45:02.618Z,1022.71
2017-06-01T03:50:02.989Z,1022.78
2017-06-01T03:55:03.387Z,1022.75
2017-06-01T04:00:02.789Z,1022.82
2017-06-01T04:05:03.126Z,1022.75
2017-06-01T04:15:03.169Z,1022.88
2017-06-01T04:30:02.973Z,1022.94
2017-06-01T04:35:03.435Z,1023.03
2017-06-01T04:40:02.747Z,1022.99
2017-06-01T04:45:03.175Z,1022.98
2017-06-01T04:50:02.570Z,1023.04
2017-06-01T04:55:02.851Z,1023.06
2017-06-01T05:00:03.383Z,1023
2017-06-01T05:05:02.929Z,1023
2017-06-01T05:10:03.291Z,1023.02
2017-06-01T05:15:02.871Z,1022.99
2017-06-01T05:20:03.168Z,1023
2017-06-01T05:25:02.633Z,1023.04
2017-06-01T05:30:03.176Z,1022.97
2017-06-01T05:35:02.644Z,1023.04
2017-06-01T05:40:03.010Z,1023.1
2017-06-01T05:45:03.405Z,1023.11
2017-06-01T05:50:02.851Z,1023.15
2017-06-01T05:55:03.388Z,1023.12
2017-06-01T06:00:02.693Z,1023.13
2017-06-01T06:05:03.016Z,1023.19
2017-06-01T06:10:03.519Z,1023.19
2017-06-01T06:15:02.867Z,1023.23
2017-06-01T06:20:03.278Z,1023.25
2017-06-01T06:25:02.744Z,1023.35
2017-06-01T06:30:03.136Z,1023.36
2017-06-01T06:35:03.426Z,1023.43
2017-06-01T06:40:02.813Z,1023.41
2017-06-01T06:45:03.214Z,1023.38
2017-06-01T06:50:02.640Z,1023.35
2017-06-01T06:55:02.896Z,1023.35
2017-06-01T07:00:03.333Z,1023.28
2017-06-01T07:05:02.684Z,1023.24
2017-06-01T07:10:03.012Z,1023.23
2017-06-01T07:15:03.429Z,1023.13
2017-06-01T07:20:02.862Z,1023.16
2017-06-01T07:25:03.353Z,1023.06
2017-06-01T07:30:02.858Z,1023.14
2017-06-01T07:35:03.254Z,1023.12
2017-06-01T07:40:02.631Z,1023.14
2017-06-01T07:45:02.948Z,1023.1
2017-06-01T07:50:03.365Z,1023.08
2017-06-01T07:55:02.812Z,1023.08
2017-06-01T08:00:03.129Z,1023.05
2017-06-01T08:05:03.449Z,1023.1
2017-06-01T08:10:02.844Z,1023.02
2017-06-01T08:15:03.297Z,1022.98
2017-06-01T08:20:02.716Z,1023.02
2017-06-01T08:25:03.143Z,1022.98
2017-06-01T08:30:02.555Z,1023
2017-06-01T08:35:02.931Z,1023.03
2017-06-01T08:40:03.352Z,1022.91
2017-06-01T08:45:02.790Z,1022.95
2017-06-01T08:50:03.403Z,1022.96
2017-06-01T08:55:02.842Z,1022.91
2017-06-01T09:00:03.275Z,1022.87
2017-06-01T09:05:02.655Z,1022.83
2017-06-01T09:10:03.140Z,1022.81
2017-06-01T09:15:03.416Z,1022.73
2017-06-01T09:20:02.890Z,1022.82
2017-06-01T09:25:03.362Z,1022.84
2017-06-01T09:30:02.682Z,1022.77
2017-06-01T09:35:03.192Z,1022.73
2017-06-01T09:40:02.604Z,1022.72
2017-06-01T09:45:02.897Z,1022.68
2017-06-01T09:50:03.242Z,1022.71
2017-06-01T09:55:02.635Z,1022.71
2017-06-01T10:00:03.101Z,1022.72
2017-06-01T10:05:03.440Z,1022.62
2017-06-01T10:10:02.968Z,1022.46
2017-06-01T10:15:03.315Z,1022.54
2017-06-01T10:20:02.688Z,1022.45
2017-06-01T10:25:03.034Z,1022.39
2017-06-01T10:30:03.473Z,1022.29
2017-06-01T10:35:02.790Z,1022.31
2017-06-01T10:40:03.344Z,1022.21
2017-06-01T10:45:02.791Z,1022.11
2017-06-01T10:50:03.201Z,1022.05
2017-06-01T10:55:02.666Z,1022
2017-06-01T11:00:03.460Z,1021.91
2017-06-01T11:05:02.795Z,1021.83
2017-06-01T11:10:03.362Z,1021.78
2017-06-01T11:15:02.713Z,1021.76
2017-06-01T11:20:03.324Z,1021.78
2017-06-01T11:25:02.685Z,1021.72
2017-06-01T11:30:03.282Z,1021.7
2017-06-01T11:35:02.856Z,1021.69
2017-06-01T11:40:03.285Z,1021.65
2017-06-01T11:45:02.607Z,1021.68
2017-06-01T11:50:02.982Z,1021.62
2017-06-01T11:55:02.594Z,1021.59
2017-06-01T12:00:02.998Z,1021.61
2017-06-01T12:05:03.355Z,1021.47
2017-06-01T12:10:02.777Z,1021.46
2017-06-01T12:15:03.057Z,1021.37
2017-06-01T12:20:03.469Z,1021.28
2017-06-01T12:25:03.013Z,1021.22
2017-06-01T12:30:03.523Z,1021.2
2017-06-01T12:35:02.896Z,1021.18
2017-06-01T12:40:03.266Z,1021.13
2017-06-01T12:45:02.667Z,1021.15
2017-06-01T12:50:03.313Z,1021.11
2017-06-01T12:55:02.849Z,1021.04
2017-06-01T13:00:02.699Z,1020.99
2017-06-01T13:05:03.128Z,1020.98
2017-06-01T13:10:03.241Z,1020.99
2017-06-01T13:15:02.997Z,1020.99
2017-06-01T13:20:02.712Z,1020.93
2017-06-01T13:25:03.268Z,1020.92
2017-06-01T13:30:02.562Z,1020.86
2017-06-01T13:35:03.388Z,1020.82
2017-06-01T13:40:02.759Z,1020.83
2017-06-01T13:45:02.766Z,1020.79
2017-06-01T13:50:03.004Z,1020.8
2017-06-01T13:55:03.407Z,1020.72
2017-06-01T14:00:02.579Z,1020.71
2017-06-01T14:05:02.587Z,1020.72
2017-06-01T14:10:03.131Z,1020.69
2017-06-01T14:15:03.194Z,1020.76
2017-06-01T14:20:03.070Z,1020.63
2017-06-01T14:25:02.775Z,1020.58
2017-06-01T14:30:03.459Z,1020.46
2017-06-01T14:35:02.748Z,1020.46
2017-06-01T14:40:02.669Z,1020.41
2017-06-01T14:45:02.860Z,1020.29
2017-06-01T14:50:03.508Z,1020.28
2017-06-01T14:55:03.084Z,1020.27
2017-06-01T15:00:03.266Z,1020.27
2017-06-01T15:05:02.621Z,1020.16
2017-06-01T15:10:02.668Z,1020.08
2017-06-01T15:15:02.912Z,1020.04
2017-06-01T15:20:02.720Z,1019.99
2017-06-01T15:25:02.917Z,1019.96
2017-06-01T15:30:02.839Z,1019.92
2017-06-01T15:35:03.104Z,1019.91
2017-06-01T15:40:03.416Z,1019.86
2017-06-01T15:45:02.931Z,1019.81
2017-06-01T15:50:03.420Z,1019.71
2017-06-01T15:55:02.868Z,1019.74
2017-06-01T16:00:02.926Z,1019.7
2017-06-01T16:05:03.422Z,1019.7
2017-06-01T16:10:02.664Z,1019.7
2017-06-01T16:15:02.920Z,1019.66
2017-06-01T16:20:03.240Z,1019.63
2017-06-01T16:25:02.706Z,1019.57
2017-06-01T16:30:02.784Z,1019.54
2017-06-01T16:35:02.989Z,1019.56
2017-06-01T16:40:02.949Z,1019.46
2017-06-01T16:45:03.414Z,1019.48
2017-06-01T16:50:03.188Z,1019.43
2017-06-01T16:55:02.921Z,1019.41
2017-06-01T17:00:02.649Z,1019.36
2017-06-01T17:05:03.197Z,1019.32
2017-06-01T17:10:03.027Z,1019.28
2017-06-01T17:15:03.375Z,1019.28
2017-06-01T17:20:02.752Z,1019.29
2017-06-01T17:25:03.205Z,1019.23
2017-06-01T17:30:02.577Z,1019.17
2017-06-01T17:35:03.124Z,1019.22
2017-06-01T17:40:02.631Z,1019.2
2017-06-01T17:45:02.954Z,1019.24
2017-06-01T17:50:03.437Z,1019.18
2017-06-01T17:55:02.802Z,1019.11
2017-06-01T18:00:03.292Z,1019.12
2017-06-01T18:05:02.720Z,1019.07
2017-06-01T18:10:03.207Z,1019.1
2017-06-01T18:15:03.505Z,1019.07
2017-06-01T18:20:02.826Z,1019.1
2017-06-01T18:25:03.401Z,1019.07
2017-06-01T18:30:02.985Z,1019.05
2017-06-01T18:35:03.433Z,1019.05
2017-06-01T18:40:03.207Z,1019.04
2017-06-01T18:45:03.096Z,1019
2017-06-01T18:50:02.753Z,1018.99
2017-06-01T18:55:03.031Z,1019.05
2017-06-01T19:00:03.428Z,1019.02
2017-06-01T19:05:02.919Z,1019.01
2017-06-01T19:10:03.435Z,1019.01
2017-06-01T19:15:02.791Z,1018.97
2017-06-01T19:20:03.178Z,1018.99
2017-06-01T19:25:02.643Z,1018.99
2017-06-01T19:30:02.985Z,1018.93
2017-06-01T19:35:03.390Z,1018.87
2017-06-01T19:40:02.937Z,1018.93
2017-06-01T19:45:03.252Z,1019
2017-06-01T19:50:02.772Z,1019.02
2017-06-01T19:55:03.510Z,1019.03
2017-06-01T20:00:02.957Z,1019.08
2017-06-01T20:05:03.403Z,1019.11
2017-06-01T20:10:02.857Z,1019.11
2017-06-01T20:15:03.335Z,1019.13
2017-06-01T20:20:02.847Z,1019.16
2017-06-01T20:25:03.173Z,1019.16
2017-06-01T20:30:03.516Z,1019.17
2017-06-01T20:35:02.842Z,1019.21
2017-06-01T20:40:03.235Z,1019.2
2017-06-01T20:45:02.681Z,1019.24
2017-06-01T20:50:03.249Z,1019.24
2017-06-01T20:55:02.743Z,1019.27
2017-06-01T21:00:03.151Z,1019.36
2017-06-01T21:05:02.666Z,1019.39
2017-06-01T21:10:03.235Z,1019.43
2017-06-01T21:15:02.554Z,1019.45
2017-06-01T21:20:02.980Z,1019.36
2017-06-01T21:25:03.447Z,1019.37
2017-06-01T21:30:02.971Z,1019.36
2017-06-01T21:35:03.411Z,1019.29
2017-06-01T21:40:02.800Z,1019.29
2017-06-01T21:45:03.288Z,1019.23
2017-06-01T21:50:02.617Z,1019.27
2017-06-01T21:55:02.959Z,1019.21
2017-06-01T22:00:03.228Z,1019.23
2017-06-01T22:05:02.579Z,1019.25
2017-06-01T22:10:02.889Z,1019.22
2017-06-01T22:15:03.213Z,1019.24
2017-06-01T22:20:02.551Z,1019.16
2017-06-01T22:25:03.032Z,1019.17
2017-06-01T22:30:02.503Z,1019.16
2017-06-01T22:35:03.012Z,1019.15
2017-06-01T22:40:03.505Z,1019.15
2017-06-01T22:45:02.883Z,1019.11
2017-06-01T22:50:03.351Z,1019.09
2017-06-01T22:55:02.634Z,1018.97
2017-06-01T23:00:03.251Z,1018.96
2017-06-01T23:05:02.960Z,1018.98
2017-06-01T23:10:03.342Z,1018.96
2017-06-01T23:15:02.812Z,1018.96
2017-06-01T23:20:03.267Z,1018.89
2017-06-01T23:25:02.741Z,1018.83
2017-06-01T23:30:03.140Z,1018.79
2017-06-01T23:35:02.631Z,1018.78
2017-06-01T23:40:03.097Z,1018.76
2017-06-01T23:45:03.452Z,1018.65
2017-06-01T23:50:02.756Z,1018.63
2017-06-01T23:55:03.082Z,1018.64
